createdAt,value
2023-07-09T00:02:00.056Z,16.80
2023-07-09T00:04:29.672Z,16.80
2023-07-09T00:07:01.486Z,16.70
2023-07-09T00:09:28.890Z,16.70
2023-07-09T00:11:57.348Z,16.70
2023-07-09T00:14:24.644Z,16.70
2023-07-09T00:16:52.207Z,16.60
2023-07-09T00:19:24.670Z,16.60
2023-07-09T00:21:55.935Z,16.50
2023-07-09T00:24:23.737Z,16.50
2023-07-09T00:26:53.447Z,16.40
2023-07-09T00:29:23.501Z,16.40
2023-07-09T00:31:51.026Z,16.40
2023-07-09T00:34:19.124Z,16.30
2023-07-09T00:36:48.027Z,16.30
2023-07-09T00:39:23.926Z,16.20
2023-07-09T00:41:52.506Z,16.20
2023-07-09T00:44:31.500Z,16.20
2023-07-09T00:47:05.058Z,16.10
2023-07-09T00:49:35.628Z,16.00
2023-07-09T00:52:18.795Z,16.00
2023-07-09T00:54:47.961Z,15.90
2023-07-09T00:57:22.947Z,15.90
2023-07-09T00:59:53.773Z,15.80
2023-07-09T01:02:25.043Z,15.80
2023-07-09T01:04:56.285Z,15.70
2023-07-09T01:07:24.521Z,15.70
2023-07-09T01:09:51.734Z,15.60
2023-07-09T01:12:21.625Z,15.60
2023-07-09T01:14:52.927Z,15.50
2023-07-09T01:17:21.343Z,15.50
2023-07-09T01:19:51.989Z,15.40
2023-07-09T01:22:21.794Z,15.30
2023-07-09T01:25:07.966Z,15.30
2023-07-09T01:27:41.661Z,15.30
2023-07-09T01:30:23.598Z,15.20
2023-07-09T01:32:52.994Z,15.20
2023-07-09T01:35:22.733Z,15.10
2023-07-09T01:37:51.098Z,15.10
2023-07-09T01:40:29.954Z,15.00
2023-07-09T01:43:02.159Z,15.00
2023-07-09T01:45:30.136Z,14.90
2023-07-09T01:47:58.221Z,14.80
2023-07-09T01:50:26.413Z,14.80
2023-07-09T01:52:55.578Z,14.70
2023-07-09T01:55:22.891Z,14.60
2023-07-09T01:57:52.427Z,14.60
2023-07-09T02:00:20.061Z,14.50
2023-07-09T02:02:49.805Z,14.50
2023-07-09T02:05:20.191Z,14.40
2023-07-09T02:07:48.889Z,14.40
2023-07-09T02:10:18.606Z,14.30
2023-07-09T02:12:47.004Z,14.30
2023-07-09T02:15:15.049Z,14.20
2023-07-09T02:17:42.766Z,14.20
2023-07-09T02:20:11.877Z,14.20
2023-07-09T02:22:39.984Z,14.10
2023-07-09T02:25:08.756Z,14.10
2023-07-09T02:27:37.462Z,14.10
2023-07-09T02:30:06.531Z,14.00
2023-07-09T02:32:34.050Z,14.00
2023-07-09T02:35:01.215Z,14.00
2023-07-09T02:37:29.261Z,13.90
2023-07-09T02:39:56.454Z,13.90
2023-07-09T02:42:24.768Z,13.90
2023-07-09T02:44:52.812Z,13.90
2023-07-09T02:47:20.849Z,13.90
2023-07-09T02:49:50.192Z,13.90
2023-07-09T02:52:17.675Z,13.90
2023-07-09T02:54:44.962Z,13.90
2023-07-09T02:57:13.330Z,13.80
2023-07-09T02:59:40.978Z,13.90
2023-07-09T03:02:08.483Z,13.90
2023-07-09T03:04:35.919Z,13.90
2023-07-09T03:07:03.613Z,13.90
2023-07-09T03:09:30.963Z,13.80
2023-07-09T03:11:58.598Z,13.90
2023-07-09T03:14:25.872Z,13.90
2023-07-09T03:16:53.459Z,13.90
2023-07-09T03:19:20.873Z,13.90
2023-07-09T03:21:48.367Z,14.00
2023-07-09T03:24:19.816Z,14.00
2023-07-09T03:26:48.117Z,14.00
2023-07-09T03:29:15.583Z,14.00
2023-07-09T03:31:43.511Z,14.10
2023-07-09T03:34:10.876Z,14.10
2023-07-09T03:36:39.010Z,14.20
2023-07-09T03:39:07.545Z,14.20
2023-07-09T03:41:35.645Z,14.20
2023-07-09T03:44:04.265Z,14.30
2023-07-09T03:46:31.907Z,14.30
2023-07-09T03:49:00.447Z,14.40
2023-07-09T03:51:27.987Z,14.40
2023-07-09T03:53:55.153Z,14.40
2023-07-09T03:56:22.847Z,14.40
2023-07-09T03:58:50.135Z,14.40
2023-07-09T04:01:18.018Z,14.50
2023-07-09T04:03:45.372Z,14.50
2023-07-09T04:06:12.972Z,14.50
2023-07-09T04:08:40.163Z,14.60
2023-07-09T04:11:07.958Z,14.60
2023-07-09T04:13:35.170Z,14.60
2023-07-09T04:16:03.092Z,14.70
2023-07-09T04:18:30.641Z,14.70
2023-07-09T04:20:58.125Z,14.70
2023-07-09T04:23:25.329Z,14.80
2023-07-09T04:25:52.744Z,14.90
2023-07-09T04:28:20.106Z,15.00
2023-07-09T04:30:52.463Z,15.00
2023-07-09T04:33:21.365Z,15.20
2023-07-09T04:35:50.537Z,15.20
2023-07-09T04:38:17.856Z,15.30
2023-07-09T04:40:46.029Z,15.40
2023-07-09T04:43:13.277Z,15.50
2023-07-09T04:45:40.873Z,15.50
2023-07-09T04:48:08.648Z,15.60
2023-07-09T04:50:36.380Z,15.70
2023-07-09T04:53:04.773Z,15.90
2023-07-09T04:55:33.104Z,15.90
2023-07-09T04:58:00.328Z,16.00
2023-07-09T05:00:27.793Z,16.10
2023-07-09T05:02:55.375Z,16.20
2023-07-09T05:05:22.893Z,16.30
2023-07-09T05:07:50.272Z,16.40
2023-07-09T05:10:17.949Z,16.40
2023-07-09T05:12:51.324Z,16.50
2023-07-09T05:15:20.170Z,16.60
2023-07-09T05:17:47.636Z,16.60
2023-07-09T05:20:16.358Z,16.70
2023-07-09T05:22:43.636Z,16.70
2023-07-09T05:25:11.465Z,16.80
2023-07-09T05:27:38.697Z,16.80
2023-07-09T05:30:07.075Z,17.00
2023-07-09T05:32:34.980Z,17.10
2023-07-09T05:35:02.601Z,17.20
2023-07-09T05:37:30.226Z,17.30
2023-07-09T05:39:57.731Z,17.30
2023-07-09T05:42:24.965Z,17.40
2023-07-09T05:44:53.426Z,17.40
2023-07-09T05:47:20.770Z,17.50
2023-07-09T05:49:50.884Z,17.60
2023-07-09T05:52:23.457Z,17.60
2023-07-09T05:54:52.234Z,17.70
2023-07-09T05:57:19.933Z,17.70
2023-07-09T05:59:47.778Z,17.70
2023-07-09T06:02:17.059Z,17.70
2023-07-09T06:04:45.164Z,17.70
2023-07-09T06:07:14.965Z,17.70
2023-07-09T06:09:43.075Z,17.70
2023-07-09T06:12:10.828Z,17.70
2023-07-09T06:14:38.307Z,17.80
2023-07-09T06:17:06.156Z,17.80
2023-07-09T06:19:33.793Z,17.80
2023-07-09T06:22:01.029Z,17.90
2023-07-09T06:24:28.447Z,17.90
2023-07-09T06:26:55.601Z,18.00
2023-07-09T06:29:23.360Z,18.00
2023-07-09T06:31:50.542Z,18.10
2023-07-09T06:34:18.192Z,18.10
2023-07-09T06:36:45.537Z,18.20
2023-07-09T06:39:12.989Z,18.30
2023-07-09T06:41:40.440Z,18.40
2023-07-09T06:44:11.011Z,18.50
2023-07-09T06:46:38.306Z,18.50
2023-07-09T06:49:07.988Z,18.70
2023-07-09T06:51:35.435Z,18.80
2023-07-09T06:54:02.982Z,18.90
2023-07-09T06:56:30.223Z,19.00
2023-07-09T06:58:58.105Z,19.10
2023-07-09T07:01:25.311Z,19.20
2023-07-09T07:03:52.876Z,19.40
2023-07-09T07:06:20.403Z,19.50
2023-07-09T07:08:48.049Z,19.60
2023-07-09T07:11:15.164Z,19.70
2023-07-09T07:13:44.454Z,19.80
2023-07-09T07:16:12.925Z,19.80
2023-07-09T07:18:40.927Z,20.00
2023-07-09T07:21:08.069Z,20.10
2023-07-09T07:23:35.774Z,20.10
2023-07-09T07:26:03.531Z,20.20
2023-07-09T07:28:31.887Z,20.30
2023-07-09T07:31:04.307Z,20.30
2023-07-09T07:33:32.320Z,20.40
2023-07-09T07:38:29.747Z,20.40
2023-07-09T07:40:56.875Z,20.50
2023-07-09T07:43:24.329Z,20.50
2023-07-09T07:45:51.516Z,20.60
2023-07-09T07:48:18.938Z,20.70
2023-07-09T07:50:49.082Z,20.80
2023-07-09T07:53:16.830Z,20.80
2023-07-09T07:55:44.009Z,20.80
2023-07-09T07:58:14.468Z,20.90
2023-07-09T08:00:42.003Z,20.90
2023-07-09T08:03:09.520Z,20.90
2023-07-09T08:05:36.962Z,21.10
2023-07-09T08:08:04.773Z,21.10
2023-07-09T08:10:32.147Z,21.20
2023-07-09T08:12:59.614Z,21.30
2023-07-09T08:15:27.247Z,21.40
2023-07-09T08:17:55.027Z,21.50
2023-07-09T08:20:22.294Z,21.60
2023-07-09T08:22:49.651Z,21.70
2023-07-09T08:25:16.802Z,21.80
2023-07-09T08:27:44.196Z,21.80
2023-07-09T08:30:11.891Z,21.90
2023-07-09T08:32:39.352Z,22.00
2023-07-09T08:35:34.026Z,22.00
2023-07-09T08:37:54.133Z,22.00
2023-07-09T08:40:21.316Z,22.20
2023-07-09T08:43:01.361Z,22.30
2023-07-09T08:45:55.218Z,22.30
2023-07-09T08:48:33.127Z,22.40
2023-07-09T08:51:33.978Z,22.50
2023-07-09T08:54:02.615Z,22.50
2023-07-09T08:56:33.691Z,22.60
2023-07-09T08:59:03.618Z,22.70
2023-07-09T09:01:37.680Z,22.80
2023-07-09T09:04:19.238Z,22.90
2023-07-09T09:07:08.036Z,23.10
2023-07-09T09:09:42.306Z,23.20
2023-07-09T09:12:22.616Z,23.20
2023-07-09T09:15:18.426Z,23.30
2023-07-09T09:17:46.031Z,23.30
2023-07-09T09:20:20.380Z,23.30
2023-07-09T09:23:07.610Z,23.40
2023-07-09T09:25:39.221Z,23.40
2023-07-09T09:28:06.329Z,23.40
2023-07-09T09:30:33.737Z,23.50
2023-07-09T09:33:06.303Z,23.50
2023-07-09T09:35:39.356Z,23.50
2023-07-09T09:38:16.744Z,23.60
2023-07-09T09:40:44.696Z,23.70
2023-07-09T09:43:22.130Z,23.70
2023-07-09T09:45:51.263Z,23.80
2023-07-09T09:48:29.436Z,23.90
2023-07-09T09:51:02.331Z,24.00
2023-07-09T09:53:31.787Z,24.10
2023-07-09T09:56:01.008Z,24.10
2023-07-09T09:58:29.792Z,24.20
2023-07-09T10:00:58.756Z,24.20
2023-07-09T10:03:36.923Z,24.20
2023-07-09T10:06:19.561Z,24.40
2023-07-09T10:09:17.049Z,24.50
2023-07-09T10:12:04.961Z,24.60
2023-07-09T10:14:50.876Z,24.70
2023-07-09T10:17:37.299Z,24.70
2023-07-09T10:20:26.071Z,24.90
2023-07-09T10:23:04.558Z,24.90
2023-07-09T10:25:38.937Z,25.00
2023-07-09T10:28:41.885Z,25.10
2023-07-09T10:31:48.301Z,25.10
2023-07-09T10:34:30.646Z,25.40
2023-07-09T10:37:29.129Z,25.80
2023-07-09T10:39:59.513Z,26.10
2023-07-09T10:42:35.715Z,26.70
2023-07-09T10:45:11.362Z,27.10
2023-07-09T10:47:44.705Z,27.40
2023-07-09T10:50:34.585Z,27.70
2023-07-09T10:53:34.255Z,27.90
2023-07-09T10:56:11.490Z,28.00
2023-07-09T10:58:51.253Z,27.70
2023-07-09T11:01:26.852Z,27.40
2023-07-09T11:03:59.504Z,27.00
2023-07-09T11:06:39.498Z,26.70
2023-07-09T11:09:21.472Z,26.40
2023-07-09T11:11:54.194Z,26.20
2023-07-09T11:14:41.865Z,26.10
2023-07-09T11:17:18.464Z,26.00
2023-07-09T11:19:55.044Z,25.90
2023-07-09T11:22:36.954Z,25.90
2023-07-09T11:25:15.582Z,25.90
2023-07-09T11:28:04.528Z,25.80
2023-07-09T11:30:32.054Z,25.80
2023-07-09T11:33:18.619Z,25.80
2023-07-09T11:36:10.348Z,25.80
2023-07-09T11:38:48.522Z,25.80
2023-07-09T11:41:36.124Z,25.90
2023-07-09T11:44:17.106Z,25.90
2023-07-09T11:46:51.826Z,25.80
2023-07-09T11:49:22.338Z,25.80
2023-07-09T11:52:03.018Z,25.80
2023-07-09T11:54:35.978Z,25.90
2023-07-09T11:57:04.160Z,26.00
2023-07-09T11:59:38.461Z,26.10
2023-07-09T12:02:07.418Z,26.20
2023-07-09T12:04:36.415Z,26.30
2023-07-09T12:07:06.921Z,26.40
2023-07-09T12:09:42.722Z,26.60
2023-07-09T12:12:26.582Z,26.60
2023-07-09T12:14:55.325Z,26.60
2023-07-09T12:17:30.011Z,26.70
2023-07-09T12:19:57.491Z,26.80
2023-07-09T12:22:24.638Z,26.80
2023-07-09T12:24:55.145Z,26.80
2023-07-09T12:27:28.183Z,27.00
2023-07-09T12:29:57.876Z,27.10
2023-07-09T12:32:28.262Z,27.20
2023-07-09T12:34:57.782Z,27.40
2023-07-09T12:37:29.060Z,27.70
2023-07-09T12:40:00.528Z,28.10
2023-07-09T12:42:36.629Z,28.50
2023-07-09T12:45:05.360Z,29.10
2023-07-09T12:47:32.851Z,29.60
2023-07-09T12:50:27.985Z,30.30
2023-07-09T12:52:57.173Z,30.90
2023-07-09T12:55:27.132Z,31.40
2023-07-09T12:58:00.133Z,31.70
2023-07-09T13:00:32.487Z,31.90
2023-07-09T13:03:01.376Z,32.20
2023-07-09T13:05:29.271Z,32.70
2023-07-09T13:08:01.728Z,33.00
2023-07-09T13:10:31.696Z,33.30
2023-07-09T13:13:04.787Z,33.70
2023-07-09T13:15:44.030Z,33.70
2023-07-09T13:18:13.903Z,33.90
2023-07-09T13:20:47.714Z,33.90
2023-07-09T13:23:19.498Z,34.00
2023-07-09T13:25:48.477Z,34.00
2023-07-09T13:28:16.664Z,34.20
2023-07-09T13:30:43.944Z,34.50
2023-07-09T13:33:12.421Z,34.70
2023-07-09T13:35:39.829Z,34.80
2023-07-09T13:38:15.177Z,34.80
2023-07-09T13:40:44.155Z,34.80
2023-07-09T13:43:20.394Z,34.70
2023-07-09T13:45:49.478Z,34.50
2023-07-09T13:48:21.205Z,34.30
2023-07-09T13:50:50.997Z,34.40
2023-07-09T13:53:21.552Z,34.60
2023-07-09T13:55:50.565Z,34.70
2023-07-09T13:58:20.743Z,34.50
2023-07-09T14:00:50.746Z,34.50
2023-07-09T14:03:24.876Z,34.60
2023-07-09T14:05:52.864Z,34.90
2023-07-09T14:08:22.821Z,34.90
2023-07-09T14:10:50.817Z,34.90
2023-07-09T14:13:21.558Z,34.70
2023-07-09T14:15:48.787Z,34.40
2023-07-09T14:18:19.881Z,34.20
2023-07-09T14:20:47.480Z,34.10
2023-07-09T14:23:17.224Z,33.90
2023-07-09T14:25:45.381Z,33.80
2023-07-09T14:28:18.709Z,33.90
2023-07-09T14:30:47.495Z,34.20
2023-07-09T14:33:18.293Z,34.40
2023-07-09T14:35:46.627Z,34.80
2023-07-09T14:38:18.407Z,34.90
2023-07-09T14:40:47.460Z,35.00
2023-07-09T14:43:15.236Z,35.00
2023-07-09T14:45:43.217Z,35.00
2023-07-09T14:48:13.284Z,35.10
2023-07-09T14:50:42.439Z,35.20
2023-07-09T14:53:16.124Z,35.30
2023-07-09T14:55:43.983Z,35.40
2023-07-09T14:58:20.048Z,35.50
2023-07-09T15:00:48.266Z,35.30
2023-07-09T15:03:24.761Z,35.10
2023-07-09T15:05:52.901Z,34.70
2023-07-09T15:08:25.557Z,34.30
2023-07-09T15:10:54.615Z,34.00
2023-07-09T15:13:34.911Z,33.70
2023-07-09T15:16:03.638Z,33.60
2023-07-09T15:18:31.845Z,33.40
2023-07-09T15:21:02.598Z,33.30
2023-07-09T15:23:31.295Z,33.40
2023-07-09T15:25:58.969Z,33.60
2023-07-09T15:28:26.392Z,33.40
2023-07-09T15:30:53.519Z,33.30
2023-07-09T15:33:22.141Z,33.30
2023-07-09T15:35:51.752Z,33.40
2023-07-09T15:38:19.627Z,33.30
2023-07-09T15:40:50.258Z,33.10
2023-07-09T15:43:19.476Z,32.60
2023-07-09T15:45:49.600Z,32.20
2023-07-09T15:48:25.871Z,31.80
2023-07-09T15:50:53.032Z,31.40
2023-07-09T15:53:22.998Z,30.90
2023-07-09T15:55:53.364Z,30.70
2023-07-09T15:58:25.501Z,30.60
2023-07-09T16:00:53.245Z,30.70
2023-07-09T16:03:23.025Z,30.60
2023-07-09T16:05:51.136Z,30.40
2023-07-09T16:08:19.092Z,30.10
2023-07-09T16:10:46.219Z,29.80
2023-07-09T16:13:31.725Z,29.70
2023-07-09T16:15:58.830Z,29.40
2023-07-09T16:18:27.129Z,29.00
2023-07-09T16:20:55.595Z,28.70
2023-07-09T16:23:26.410Z,28.50
2023-07-09T16:25:53.585Z,28.50
2023-07-09T16:28:21.801Z,28.90
2023-07-09T16:30:52.012Z,29.40
2023-07-09T16:33:19.537Z,29.90
2023-07-09T16:35:47.961Z,30.50
2023-07-09T16:38:15.378Z,30.80
2023-07-09T16:40:42.496Z,31.20
2023-07-09T16:43:22.140Z,31.50
2023-07-09T16:45:49.454Z,31.80
2023-07-09T16:48:24.785Z,32.00
2023-07-09T16:50:55.032Z,32.10
2023-07-09T16:53:23.282Z,32.00
2023-07-09T16:55:51.271Z,32.00
2023-07-09T16:58:36.492Z,31.90
2023-07-09T17:01:04.707Z,31.90
2023-07-09T17:03:32.777Z,31.80
2023-07-09T17:06:00.084Z,31.50
2023-07-09T17:08:28.794Z,31.30
2023-07-09T17:10:57.715Z,31.10
2023-07-09T17:13:28.677Z,31.10
2023-07-09T17:15:56.157Z,31.00
2023-07-09T17:18:29.982Z,30.80
2023-07-09T17:21:01.136Z,30.70
2023-07-09T17:23:31.021Z,30.30
2023-07-09T17:26:00.532Z,29.90
2023-07-09T17:28:30.300Z,29.40
2023-07-09T17:30:58.662Z,28.90
2023-07-09T17:33:26.302Z,28.40
2023-07-09T17:35:55.490Z,28.10
2023-07-09T17:38:25.913Z,27.70
2023-07-09T17:40:54.219Z,27.40
2023-07-09T17:43:24.540Z,27.10
2023-07-09T17:45:53.583Z,26.90
2023-07-09T17:48:23.632Z,26.70
2023-07-09T17:50:50.874Z,26.80
2023-07-09T17:53:24.186Z,27.00
2023-07-09T17:55:51.974Z,27.30
2023-07-09T17:58:40.642Z,27.60
2023-07-09T18:01:08.112Z,27.90
2023-07-09T18:03:38.414Z,28.00
2023-07-09T18:06:06.041Z,28.20
2023-07-09T18:08:33.675Z,28.30
2023-07-09T18:11:00.897Z,28.40
2023-07-09T18:13:30.533Z,28.50
2023-07-09T18:15:58.912Z,28.40
2023-07-09T18:18:26.278Z,28.40
2023-07-09T18:20:53.393Z,28.30
2023-07-09T18:23:23.290Z,28.20
2023-07-09T18:25:51.448Z,27.90
2023-07-09T18:28:37.014Z,27.70
2023-07-09T18:33:34.469Z,27.20
2023-07-09T18:36:01.550Z,26.90
2023-07-09T18:38:28.920Z,26.60
2023-07-09T18:40:56.093Z,26.30
2023-07-09T18:43:32.099Z,26.00
2023-07-09T18:46:01.551Z,25.70
2023-07-09T18:48:30.072Z,25.50
2023-07-09T18:50:59.184Z,25.20
2023-07-09T18:53:28.876Z,25.00
2023-07-09T18:55:56.626Z,24.80
2023-07-09T18:58:27.538Z,24.60
2023-07-09T19:00:58.443Z,24.40
2023-07-09T19:03:36.193Z,24.40
2023-07-09T19:06:04.522Z,24.00
2023-07-09T19:08:35.588Z,23.90
2023-07-09T19:11:06.919Z,23.70
2023-07-09T19:13:39.203Z,23.50
2023-07-09T19:16:23.874Z,23.40
2023-07-09T19:18:52.082Z,23.20
2023-07-09T19:21:19.613Z,23.10
2023-07-09T19:23:47.194Z,23.00
2023-07-09T19:26:14.516Z,22.90
2023-07-09T19:28:45.587Z,22.70
2023-07-09T19:31:13.233Z,22.60
2023-07-09T19:33:42.218Z,22.60
2023-07-09T19:36:21.956Z,22.50
2023-07-09T19:38:51.959Z,22.40
2023-07-09T19:41:20.762Z,22.30
2023-07-09T19:43:48.734Z,22.20
2023-07-09T19:46:22.857Z,22.20
2023-07-09T19:48:52.484Z,22.10
2023-07-09T19:51:19.723Z,22.00
2023-07-09T19:53:47.621Z,21.90
2023-07-09T19:56:14.756Z,21.90
2023-07-09T19:58:42.394Z,21.80
2023-07-09T20:01:15.675Z,21.70
2023-07-09T20:03:43.400Z,21.60
2023-07-09T20:06:12.769Z,21.60
2023-07-09T20:08:40.214Z,21.50
2023-07-09T20:11:12.123Z,21.50
2023-07-09T20:13:39.484Z,21.40
2023-07-09T20:16:07.825Z,21.30
2023-07-09T20:18:35.216Z,21.20
2023-07-09T20:21:17.407Z,21.20
2023-07-09T20:23:44.566Z,21.10
2023-07-09T20:26:12.402Z,21.00
2023-07-09T20:28:39.588Z,21.00
2023-07-09T20:31:24.307Z,20.90
2023-07-09T20:34:01.616Z,20.80
2023-07-09T20:36:29.341Z,20.80
2023-07-09T20:38:56.491Z,20.70
2023-07-09T20:41:24.037Z,20.60
2023-07-09T20:43:55.960Z,20.50
2023-07-09T20:46:23.486Z,20.50
2023-07-09T20:48:50.626Z,20.50
2023-07-09T20:51:18.040Z,20.30
2023-07-09T20:53:45.339Z,20.30
2023-07-09T20:56:15.784Z,20.20
2023-07-09T20:58:43.498Z,20.10
2023-07-09T21:01:11.329Z,20.10
2023-07-09T21:03:38.575Z,20.00
2023-07-09T21:06:17.839Z,19.90
2023-07-09T21:08:45.262Z,19.90
2023-07-09T21:11:12.701Z,19.80
2023-07-09T21:13:39.865Z,19.70
2023-07-09T21:16:19.946Z,19.70
2023-07-09T21:18:47.352Z,19.60
2023-07-09T21:21:15.779Z,19.50
2023-07-09T21:23:42.874Z,19.50
2023-07-09T21:26:17.949Z,19.40
2023-07-09T21:28:45.067Z,19.40
2023-07-09T21:31:20.729Z,19.30
2023-07-09T21:33:48.827Z,19.20
2023-07-09T21:36:16.219Z,19.10
2023-07-09T21:38:43.318Z,19.10
2023-07-09T21:41:10.727Z,19.00
2023-07-09T21:43:37.850Z,18.90
2023-07-09T21:46:05.451Z,18.80
2023-07-09T21:48:32.758Z,18.80
2023-07-09T21:51:00.104Z,18.70
2023-07-09T21:53:55.310Z,18.70
2023-07-09T21:56:18.600Z,18.60
2023-07-09T21:58:45.694Z,18.60
2023-07-09T22:01:17.990Z,18.50
2023-07-09T22:03:45.701Z,18.50
2023-07-09T22:06:13.843Z,18.50
2023-07-09T22:08:46.462Z,18.50
2023-07-09T22:11:27.220Z,18.40
2023-07-09T22:13:56.919Z,18.40
2023-07-09T22:16:26.957Z,18.30
2023-07-09T22:18:54.930Z,18.20
2023-07-09T22:21:22.480Z,18.20
2023-07-09T22:23:50.538Z,18.10
2023-07-09T22:26:19.011Z,18.10
2023-07-09T22:28:46.293Z,18.00
2023-07-09T22:31:14.926Z,17.90
2023-07-09T22:33:43.604Z,17.90
2023-07-09T22:36:13.061Z,17.90
2023-07-09T22:38:40.251Z,17.90
2023-07-09T22:41:07.774Z,17.80
2023-07-09T22:43:35.295Z,17.80
2023-07-09T22:46:03.946Z,17.80
2023-07-09T22:48:31.737Z,17.70
2023-07-09T22:50:59.336Z,17.60
2023-07-09T22:53:26.617Z,17.60
2023-07-09T22:55:54.448Z,17.50
2023-07-09T22:58:22.327Z,17.40
2023-07-09T23:01:03.498Z,17.30
2023-07-09T23:03:36.473Z,17.30
2023-07-09T23:06:14.928Z,17.20
2023-07-09T23:08:42.838Z,17.10
2023-07-09T23:11:19.790Z,17.10
2023-07-09T23:13:48.032Z,17.00
2023-07-09T23:16:17.615Z,17.00
2023-07-09T23:18:46.081Z,17.00
2023-07-09T23:21:15.793Z,16.90
2023-07-09T23:23:42.830Z,16.90
2023-07-09T23:26:13.223Z,16.90
2023-07-09T23:28:41.715Z,16.80
2023-07-09T23:31:31.087Z,16.80
2023-07-09T23:34:00.458Z,16.80
2023-07-09T23:36:28.117Z,16.70
2023-07-09T23:38:55.550Z,16.70
2023-07-09T23:41:26.253Z,16.70
2023-07-09T23:43:55.551Z,16.70
2023-07-09T23:46:24.338Z,16.60
2023-07-09T23:49:00.596Z,16.50
2023-07-09T23:51:36.606Z,16.50
2023-07-09T23:54:03.686Z,16.40
2023-07-09T23:56:34.248Z,16.50
2023-07-09T23:59:04.868Z,16.40
